createdAt,value
2022-09-12T00:01:37.291Z,11.90
2022-09-12T00:04:06.336Z,10.82
2022-09-12T00:06:36.896Z,11.30
2022-09-12T00:09:08.329Z,10.95
2022-09-12T00:11:37.724Z,11.25
2022-09-12T00:14:08.785Z,11.45
2022-09-12T00:16:38.258Z,11.65
2022-09-12T00:19:08.265Z,11.40
2022-09-12T00:21:39.137Z,11.68
2022-09-12T00:24:08.181Z,10.73
2022-09-12T00:26:36.789Z,11.07
2022-09-12T00:29:05.461Z,10.95
2022-09-12T00:31:35.625Z,11.15
2022-09-12T00:34:04.141Z,11.55
2022-09-12T00:36:32.694Z,11.70
2022-09-12T00:39:01.425Z,11.30
2022-09-12T00:41:31.571Z,11.82
2022-09-12T00:44:02.311Z,11.90
2022-09-12T00:46:40.153Z,12.15
2022-09-12T00:49:15.283Z,11.55
2022-09-12T00:51:48.013Z,11.02
2022-09-12T00:54:22.193Z,11.15
2022-09-12T00:56:54.168Z,10.77
2022-09-12T00:59:26.432Z,12.02
2022-09-12T01:01:57.810Z,12.32
2022-09-12T01:04:28.974Z,11.30
2022-09-12T01:06:59.517Z,11.02
2022-09-12T01:09:28.103Z,11.73
2022-09-12T01:11:56.856Z,11.60
2022-09-12T01:14:25.825Z,11.75
2022-09-12T01:16:55.810Z,12.35
2022-09-12T01:20:04.414Z,12.93
2022-09-12T01:22:53.823Z,12.10
2022-09-12T01:25:29.760Z,12.32
2022-09-12T01:28:18.464Z,12.32
2022-09-12T01:30:52.302Z,11.82
2022-09-12T01:33:35.007Z,12.40
2022-09-12T01:36:24.637Z,13.50
2022-09-12T01:39:00.253Z,12.40
2022-09-12T01:41:32.655Z,11.82
2022-09-12T01:44:06.853Z,12.15
2022-09-12T01:46:45.702Z,13.80
2022-09-12T01:49:19.086Z,13.43
2022-09-12T01:51:58.312Z,12.27
2022-09-12T01:54:33.335Z,13.13
2022-09-12T01:57:07.179Z,12.55
2022-09-12T01:59:41.283Z,12.32
2022-09-12T02:02:16.200Z,12.88
2022-09-12T02:04:52.089Z,12.23
2022-09-12T02:07:24.313Z,12.55
2022-09-12T02:09:57.957Z,11.75
2022-09-12T02:12:30.778Z,12.30
2022-09-12T02:15:04.614Z,12.95
2022-09-12T02:17:39.241Z,12.23
2022-09-12T02:20:25.897Z,10.98
2022-09-12T02:23:08.395Z,12.48
2022-09-12T02:25:43.019Z,11.63
2022-09-12T02:28:15.163Z,11.43
2022-09-12T02:30:49.123Z,11.32
2022-09-12T02:33:26.644Z,12.18
2022-09-12T02:36:04.761Z,12.10
2022-09-12T02:38:39.982Z,11.70
2022-09-12T02:41:08.765Z,13.18
2022-09-12T02:43:38.748Z,11.40
2022-09-12T02:46:12.480Z,12.52
2022-09-12T02:48:44.583Z,12.13
2022-09-12T02:51:13.580Z,12.73
2022-09-12T02:53:42.983Z,12.70
2022-09-12T02:56:19.241Z,13.30
2022-09-12T02:58:48.724Z,11.55
2022-09-12T03:01:30.095Z,12.18
2022-09-12T03:04:20.341Z,11.95
2022-09-12T03:06:58.714Z,11.63
2022-09-12T03:09:36.775Z,11.60
2022-09-12T03:12:14.312Z,11.20
2022-09-12T03:15:01.560Z,11.18
2022-09-12T03:17:51.901Z,12.00
2022-09-12T03:20:35.320Z,11.05
2022-09-12T03:23:10.629Z,11.05
2022-09-12T03:25:44.638Z,11.63
2022-09-12T03:28:16.786Z,11.82
2022-09-12T03:30:47.258Z,11.82
2022-09-12T03:33:18.038Z,11.85
2022-09-12T03:35:48.942Z,11.63
2022-09-12T03:38:17.851Z,11.50
2022-09-12T03:40:51.380Z,12.02
2022-09-12T03:43:22.810Z,12.05
2022-09-12T03:45:53.294Z,11.57
2022-09-12T03:48:22.130Z,11.52
2022-09-12T03:50:52.147Z,11.95
2022-09-12T03:53:20.659Z,12.80
2022-09-12T03:55:49.195Z,12.40
2022-09-12T03:58:17.717Z,12.75
2022-09-12T04:00:46.728Z,12.73
2022-09-12T04:03:15.732Z,12.38
2022-09-12T04:05:44.268Z,11.25
2022-09-12T04:08:14.311Z,11.90
2022-09-12T04:10:42.853Z,10.88
2022-09-12T04:13:11.390Z,11.70
2022-09-12T04:15:39.886Z,12.60
2022-09-12T04:18:08.390Z,10.98
2022-09-12T04:20:37.652Z,11.77
2022-09-12T04:23:06.205Z,10.35
2022-09-12T04:25:36.149Z,11.65
2022-09-12T04:28:04.655Z,11.02
2022-09-12T04:30:34.861Z,10.80
2022-09-12T04:33:07.881Z,11.18
2022-09-12T04:35:37.196Z,10.88
2022-09-12T04:38:05.783Z,11.40
2022-09-12T04:40:34.398Z,12.48
2022-09-12T04:43:04.767Z,12.18
2022-09-12T04:45:33.942Z,12.27
2022-09-12T04:48:03.216Z,11.35
2022-09-12T04:50:31.930Z,12.35
2022-09-12T04:53:00.472Z,12.10
2022-09-12T04:55:28.969Z,12.55
2022-09-12T04:57:57.431Z,13.25
2022-09-12T05:00:27.354Z,14.18
2022-09-12T05:02:55.848Z,13.55
2022-09-12T05:05:24.546Z,12.82
2022-09-12T05:07:53.024Z,12.30
2022-09-12T05:10:23.785Z,12.20
2022-09-12T05:12:52.575Z,12.32
2022-09-12T05:15:21.160Z,12.15
2022-09-12T05:17:50.969Z,12.57
2022-09-12T05:20:19.670Z,11.77
2022-09-12T05:22:48.278Z,12.27
2022-09-12T05:25:17.138Z,12.40
2022-09-12T05:27:49.992Z,12.25
2022-09-12T05:30:19.125Z,13.00
2022-09-12T05:32:47.638Z,12.00
2022-09-12T05:35:18.539Z,13.32
2022-09-12T05:37:47.019Z,11.93
2022-09-12T05:40:17.782Z,12.60
2022-09-12T05:42:46.420Z,12.95
2022-09-12T05:45:14.987Z,11.50
2022-09-12T05:47:44.427Z,12.70
2022-09-12T05:50:13.067Z,12.73
2022-09-12T05:52:43.049Z,11.48
2022-09-12T05:55:11.649Z,12.75
2022-09-12T05:57:40.429Z,13.73
2022-09-12T06:00:10.504Z,13.25
2022-09-12T06:02:41.747Z,13.80
2022-09-12T06:05:10.685Z,14.10
2022-09-12T06:07:39.307Z,14.45
2022-09-12T06:10:10.107Z,14.52
2022-09-12T06:12:38.716Z,14.13
2022-09-12T06:15:08.097Z,15.93
2022-09-12T06:17:36.577Z,14.07
2022-09-12T06:20:05.480Z,14.90
2022-09-12T06:22:34.029Z,14.32
2022-09-12T06:25:03.068Z,14.82
2022-09-12T06:27:32.890Z,14.88
2022-09-12T06:30:01.369Z,15.77
2022-09-12T06:32:31.457Z,15.98
2022-09-12T06:34:59.936Z,16.58
2022-09-12T06:37:28.437Z,15.32
2022-09-12T06:39:57.176Z,15.52
2022-09-12T06:42:25.733Z,17.08
2022-09-12T06:45:00.135Z,16.73
2022-09-12T06:47:28.689Z,16.77
2022-09-12T06:49:57.209Z,15.98
2022-09-12T06:52:25.684Z,15.88
2022-09-12T06:54:54.205Z,16.02
2022-09-12T06:57:22.710Z,17.20
2022-09-12T06:59:51.730Z,15.80
2022-09-12T07:02:21.576Z,17.33
2022-09-12T07:04:51.741Z,16.98
2022-09-12T07:07:20.283Z,16.60
2022-09-12T07:09:49.407Z,18.40
2022-09-12T07:12:17.924Z,18.60
2022-09-12T07:14:46.562Z,15.95
2022-09-12T07:17:15.104Z,16.83
2022-09-12T07:19:44.917Z,17.55
2022-09-12T07:22:13.891Z,15.45
2022-09-12T07:24:42.420Z,14.90
2022-09-12T07:27:11.009Z,13.05
2022-09-12T07:29:39.573Z,12.63
2022-09-12T07:32:08.885Z,12.68
2022-09-12T07:34:37.609Z,11.55
2022-09-12T07:37:07.526Z,12.13
2022-09-12T07:39:36.006Z,12.27
2022-09-12T07:42:04.716Z,11.85
2022-09-12T07:44:33.301Z,14.25
2022-09-12T07:47:01.976Z,12.48
2022-09-12T07:49:30.508Z,11.23
2022-09-12T07:51:59.129Z,10.98
2022-09-12T07:54:28.985Z,10.93
2022-09-12T07:56:57.678Z,10.40
2022-09-12T07:59:48.874Z,9.75
2022-09-12T08:02:17.348Z,9.05
2022-09-12T08:04:48.085Z,9.48
2022-09-12T08:07:18.318Z,8.48
2022-09-12T08:09:48.423Z,9.68
2022-09-12T08:12:17.728Z,10.88
2022-09-12T08:14:46.225Z,9.07
2022-09-12T08:17:15.316Z,10.60
2022-09-12T08:19:44.848Z,9.88
2022-09-12T08:22:13.577Z,8.77
2022-09-12T08:24:42.425Z,8.50
2022-09-12T08:27:12.483Z,8.05
2022-09-12T08:29:40.996Z,8.80
2022-09-12T08:32:09.902Z,9.48
2022-09-12T08:34:38.505Z,8.75
2022-09-12T08:37:07.098Z,8.43
2022-09-12T08:39:35.673Z,8.10
2022-09-12T08:42:05.775Z,8.02
2022-09-12T08:45:06.251Z,7.22
2022-09-12T08:47:39.818Z,7.40
2022-09-12T08:50:17.630Z,6.70
2022-09-12T08:52:55.931Z,7.00
2022-09-12T08:55:33.012Z,6.60
2022-09-12T08:58:02.934Z,6.80
2022-09-12T09:00:40.709Z,6.35
2022-09-12T09:03:31.002Z,6.47
2022-09-12T09:06:08.468Z,5.65
2022-09-12T09:08:47.782Z,6.10
2022-09-12T09:11:27.961Z,5.90
2022-09-12T09:14:27.241Z,5.97
2022-09-12T09:16:58.831Z,6.05
2022-09-12T09:19:30.263Z,6.70
2022-09-12T09:22:01.980Z,5.47
2022-09-12T09:24:37.956Z,6.00
2022-09-12T09:27:36.807Z,6.22
2022-09-12T09:30:01.834Z,6.18
2022-09-12T09:32:37.176Z,6.30
2022-09-12T09:35:16.682Z,5.53
2022-09-12T09:37:58.037Z,5.40
2022-09-12T09:40:36.563Z,5.70
2022-09-12T09:43:16.003Z,5.40
2022-09-12T09:45:47.369Z,5.57
2022-09-12T09:48:24.909Z,5.45
2022-09-12T09:50:53.984Z,4.78
2022-09-12T09:53:34.904Z,5.50
2022-09-12T09:56:10.104Z,5.70
2022-09-12T09:58:38.737Z,5.35
2022-09-12T10:01:15.632Z,4.78
2022-09-12T10:03:52.476Z,4.22
2022-09-12T10:06:30.914Z,4.13
2022-09-12T10:09:19.685Z,4.75
2022-09-12T10:11:49.257Z,4.40
2022-09-12T10:14:37.627Z,4.45
2022-09-12T10:17:25.819Z,4.65
2022-09-12T10:20:17.463Z,4.60
2022-09-12T10:22:49.481Z,4.38
2022-09-12T10:25:20.271Z,4.30
2022-09-12T10:27:54.462Z,4.63
2022-09-12T10:30:25.001Z,4.30
2022-09-12T10:32:54.043Z,4.07
2022-09-12T10:35:26.685Z,4.05
2022-09-12T10:37:58.213Z,4.35
2022-09-12T10:40:29.021Z,4.07
2022-09-12T10:42:59.245Z,4.65
2022-09-12T10:45:30.289Z,4.63
2022-09-12T10:48:04.101Z,4.63
2022-09-12T10:50:41.792Z,4.53
2022-09-12T10:53:20.542Z,3.92
2022-09-12T10:56:05.129Z,3.83
2022-09-12T10:58:53.628Z,4.40
2022-09-12T11:01:38.926Z,3.55
2022-09-12T11:04:25.400Z,4.03
2022-09-12T11:07:05.950Z,4.80
2022-09-12T11:09:42.462Z,3.78
2022-09-12T11:12:16.985Z,3.80
2022-09-12T11:14:57.554Z,4.15
2022-09-12T11:17:34.588Z,4.05
2022-09-12T11:20:40.049Z,4.30
2022-09-12T11:23:39.185Z,3.95
2022-09-12T11:26:20.172Z,4.18
2022-09-12T11:28:55.673Z,4.70
2022-09-12T11:31:42.734Z,4.45
2022-09-12T11:34:15.642Z,3.97
2022-09-12T11:37:16.178Z,3.45
2022-09-12T11:39:54.767Z,3.70
2022-09-12T11:42:30.741Z,3.83
2022-09-12T11:45:06.108Z,3.90
2022-09-12T11:47:36.656Z,3.50
2022-09-12T11:50:23.372Z,3.67
2022-09-12T11:52:53.690Z,3.28
2022-09-12T11:55:27.142Z,3.50
2022-09-12T11:57:58.459Z,3.25
2022-09-12T12:00:31.903Z,3.08
2022-09-12T12:03:07.433Z,3.40
2022-09-12T12:05:43.206Z,3.10
2022-09-12T12:08:12.154Z,2.85
2022-09-12T12:10:43.742Z,3.28
2022-09-12T12:13:27.670Z,3.17
2022-09-12T12:16:00.838Z,3.30
2022-09-12T12:18:31.253Z,3.42
2022-09-12T12:21:22.781Z,3.33
2022-09-12T12:24:18.711Z,3.25
2022-09-12T12:26:59.320Z,3.58
2022-09-12T12:29:54.731Z,3.38
2022-09-12T12:32:26.087Z,3.47
2022-09-12T12:35:40.433Z,3.40
2022-09-12T12:38:28.956Z,3.90
2022-09-12T12:41:54.423Z,3.40
2022-09-12T12:44:52.310Z,3.45
2022-09-12T12:47:25.290Z,3.50
2022-09-12T12:49:57.169Z,3.90
2022-09-12T12:52:29.402Z,3.88
2022-09-12T12:54:59.788Z,3.47
2022-09-12T12:57:46.652Z,4.43
2022-09-12T13:00:35.354Z,3.72
2022-09-12T13:03:11.686Z,3.72
2022-09-12T13:05:42.525Z,3.78
2022-09-12T13:08:24.951Z,3.80
2022-09-12T13:10:56.864Z,3.47
2022-09-12T13:13:29.234Z,3.90
2022-09-12T13:15:59.749Z,3.53
2022-09-12T13:18:30.945Z,4.07
2022-09-12T13:21:10.286Z,3.90
2022-09-12T13:23:38.972Z,3.08
2022-09-12T13:26:13.408Z,3.50
2022-09-12T13:28:42.004Z,3.40
2022-09-12T13:31:20.003Z,3.13
2022-09-12T13:33:50.843Z,3.75
2022-09-12T13:36:34.977Z,3.70
2022-09-12T13:39:15.353Z,3.35
2022-09-12T13:42:10.069Z,3.40
2022-09-12T13:44:44.469Z,3.47
2022-09-12T13:47:21.886Z,3.75
2022-09-12T13:49:51.433Z,3.10
2022-09-12T13:52:22.992Z,3.45
2022-09-12T13:54:54.233Z,3.40
2022-09-12T13:57:34.455Z,3.55
2022-09-12T14:00:08.900Z,3.58
2022-09-12T14:02:41.574Z,3.70
2022-09-12T14:05:14.539Z,3.33
2022-09-12T14:07:55.125Z,3.65
2022-09-12T14:10:29.136Z,3.58
2022-09-12T14:12:58.740Z,3.58
2022-09-12T14:15:30.089Z,3.35
2022-09-12T14:18:01.786Z,3.22
2022-09-12T14:20:32.932Z,3.83
2022-09-12T14:23:04.777Z,2.95
2022-09-12T14:25:39.007Z,3.30
2022-09-12T14:28:10.424Z,3.28
2022-09-12T14:30:39.166Z,3.40
2022-09-12T14:33:20.033Z,3.40
2022-09-12T14:35:50.452Z,3.10
2022-09-12T14:38:24.805Z,3.97
2022-09-12T14:41:00.466Z,3.30
2022-09-12T14:43:31.337Z,3.10
2022-09-12T14:46:03.564Z,3.30
2022-09-12T14:48:37.378Z,2.75
2022-09-12T14:51:07.123Z,2.72
2022-09-12T14:53:37.606Z,2.97
2022-09-12T14:56:11.618Z,2.90
2022-09-12T14:58:41.513Z,2.90
2022-09-12T15:01:28.570Z,2.95
2022-09-12T15:03:58.489Z,2.30
2022-09-12T15:06:30.143Z,2.45
2022-09-12T15:09:00.615Z,2.60
2022-09-12T15:11:29.451Z,2.28
2022-09-12T15:13:58.016Z,2.58
2022-09-12T15:16:26.673Z,2.42
2022-09-12T15:18:55.159Z,2.40
2022-09-12T15:21:25.026Z,2.53
2022-09-12T15:23:53.930Z,2.42
2022-09-12T15:26:23.976Z,2.13
2022-09-12T15:28:52.485Z,2.40
2022-09-12T15:31:25.731Z,2.50
2022-09-12T15:33:55.485Z,2.10
2022-09-12T15:36:26.292Z,2.40
2022-09-12T15:38:55.552Z,2.35
2022-09-12T15:41:27.710Z,1.90
2022-09-12T15:43:56.743Z,1.83
2022-09-12T15:46:25.344Z,1.65
2022-09-12T15:48:53.879Z,1.70
2022-09-12T15:51:23.080Z,2.22
2022-09-12T15:53:53.225Z,2.17
2022-09-12T15:56:23.103Z,1.80
2022-09-12T15:59:00.117Z,1.80
2022-09-12T16:01:29.998Z,1.77
2022-09-12T16:03:58.946Z,1.83
2022-09-12T16:06:32.478Z,1.77
2022-09-12T16:09:05.131Z,1.65
2022-09-12T16:11:33.943Z,1.58
2022-09-12T16:14:03.683Z,1.63
2022-09-12T16:16:32.482Z,1.65
2022-09-12T16:19:00.975Z,2.00
2022-09-12T16:21:29.531Z,1.55
2022-09-12T16:23:58.054Z,1.90
2022-09-12T16:26:28.000Z,2.35
2022-09-12T16:28:57.025Z,2.20
2022-09-12T16:31:26.689Z,2.83
2022-09-12T16:33:55.256Z,3.28
2022-09-12T16:36:24.289Z,2.65
2022-09-12T16:38:54.375Z,1.58
2022-09-12T16:41:26.263Z,1.58
2022-09-12T16:43:56.300Z,1.38
2022-09-12T16:46:28.607Z,1.58
2022-09-12T16:48:58.863Z,1.60
2022-09-12T16:51:29.277Z,1.60
2022-09-12T16:53:58.197Z,1.70
2022-09-12T16:56:26.688Z,1.60
2022-09-12T16:58:56.697Z,1.67
2022-09-12T17:01:26.866Z,1.60
2022-09-12T17:03:56.413Z,1.42
2022-09-12T17:06:25.901Z,1.50
2022-09-12T17:08:55.993Z,1.48
2022-09-12T17:11:26.673Z,1.65
2022-09-12T17:14:04.802Z,1.50
2022-09-12T17:16:34.734Z,2.10
2022-09-12T17:19:03.312Z,2.00
2022-09-12T17:21:31.841Z,1.60
2022-09-12T17:24:00.617Z,1.60
2022-09-12T17:26:29.074Z,1.70
2022-09-12T17:28:58.976Z,1.88
2022-09-12T17:31:27.726Z,1.77
2022-09-12T17:33:58.041Z,1.88
2022-09-12T17:36:27.221Z,1.90
2022-09-12T17:38:56.085Z,1.70
2022-09-12T17:41:25.893Z,1.50
2022-09-12T17:43:57.249Z,1.67
2022-09-12T17:46:30.925Z,1.77
2022-09-12T17:49:01.954Z,1.50
2022-09-12T17:51:31.653Z,1.60
2022-09-12T17:54:02.601Z,1.70
2022-09-12T17:56:33.252Z,2.00
2022-09-12T17:59:03.063Z,1.60
2022-09-12T18:01:50.651Z,1.55
2022-09-12T18:04:19.986Z,1.58
2022-09-12T18:06:49.165Z,1.70
2022-09-12T18:09:21.472Z,1.67
2022-09-12T18:11:51.034Z,1.70
2022-09-12T18:14:19.827Z,2.50
2022-09-12T18:16:50.256Z,1.90
2022-09-12T18:19:19.009Z,2.40
2022-09-12T18:21:47.553Z,2.15
2022-09-12T18:24:16.454Z,1.80
2022-09-12T18:26:44.945Z,1.92
2022-09-12T18:29:16.733Z,1.83
2022-09-12T18:31:46.640Z,2.15
2022-09-12T18:34:17.357Z,1.90
2022-09-12T18:36:49.805Z,1.95
2022-09-12T18:39:18.964Z,1.80
2022-09-12T18:41:47.507Z,2.15
2022-09-12T18:44:15.997Z,1.90
2022-09-12T18:46:44.549Z,1.80
2022-09-12T18:49:13.216Z,1.70
2022-09-12T18:51:43.753Z,2.28
2022-09-12T18:54:14.380Z,1.90
2022-09-12T18:56:43.943Z,1.90
2022-09-12T18:59:14.870Z,1.85
2022-09-12T19:01:43.979Z,2.10
2022-09-12T19:04:16.005Z,1.77
2022-09-12T19:06:48.209Z,1.83
2022-09-12T19:09:18.822Z,2.35
2022-09-12T19:11:49.922Z,2.30
2022-09-12T19:14:22.466Z,2.20
2022-09-12T19:16:52.017Z,1.92
2022-09-12T19:19:21.352Z,2.40
2022-09-12T19:21:51.294Z,2.50
2022-09-12T19:24:21.788Z,2.30
2022-09-12T19:26:52.002Z,2.30
2022-09-12T19:29:21.059Z,2.10
2022-09-12T19:31:50.070Z,2.20
2022-09-12T19:34:19.169Z,2.03
2022-09-12T19:36:47.942Z,2.30
2022-09-12T19:39:19.805Z,2.40
2022-09-12T19:41:49.170Z,2.22
2022-09-12T19:44:19.153Z,2.28
2022-09-12T19:46:47.775Z,2.47
2022-09-12T19:49:16.573Z,2.47
2022-09-12T19:51:45.312Z,2.45
2022-09-12T19:54:13.784Z,2.50
2022-09-12T19:56:43.664Z,2.63
2022-09-12T19:59:12.408Z,2.10
2022-09-12T20:01:40.930Z,2.42
2022-09-12T20:04:09.502Z,2.90
2022-09-12T20:06:38.613Z,2.53
2022-09-12T20:09:07.220Z,2.80
2022-09-12T20:11:35.766Z,2.80
2022-09-12T20:14:05.774Z,2.60
2022-09-12T20:16:34.549Z,2.92
2022-09-12T20:19:06.827Z,2.90
2022-09-12T20:21:36.638Z,2.50
2022-09-12T20:24:07.135Z,2.55
2022-09-12T20:26:35.937Z,2.90
2022-09-12T20:29:06.573Z,2.85
2022-09-12T20:31:35.732Z,2.65
2022-09-12T20:34:04.513Z,2.63
2022-09-12T20:36:33.486Z,2.50
2022-09-12T20:39:02.681Z,2.80
2022-09-12T20:41:36.226Z,2.72
2022-09-12T20:44:06.372Z,2.58
2022-09-12T20:46:35.316Z,2.72
2022-09-12T20:49:04.208Z,2.88
2022-09-12T20:51:32.870Z,2.58
2022-09-12T20:54:03.969Z,2.40
2022-09-12T20:56:34.289Z,2.80
2022-09-12T20:59:03.092Z,2.60
2022-09-12T21:01:33.895Z,2.83
2022-09-12T21:04:03.115Z,2.53
2022-09-12T21:06:32.454Z,2.70
2022-09-12T21:09:01.100Z,2.95
2022-09-12T21:11:30.311Z,3.03
2022-09-12T21:13:58.933Z,2.80
2022-09-12T21:16:27.695Z,2.85
2022-09-12T21:18:59.396Z,2.63
2022-09-12T21:21:28.206Z,3.10
2022-09-12T21:23:59.384Z,3.00
2022-09-12T21:26:28.297Z,2.90
2022-09-12T21:28:57.427Z,4.32
2022-09-12T21:31:27.007Z,2.88
2022-09-12T21:33:57.191Z,2.72
2022-09-12T21:36:26.011Z,2.80
2022-09-12T21:38:54.600Z,2.70
2022-09-12T21:41:23.136Z,3.10
2022-09-12T21:43:51.740Z,3.17
2022-09-12T21:46:20.269Z,3.00
2022-09-12T21:48:48.920Z,3.10
2022-09-12T21:51:18.774Z,3.00
2022-09-12T21:53:47.764Z,2.95
2022-09-12T21:56:16.410Z,2.95
2022-09-12T21:58:45.046Z,3.40
2022-09-12T22:01:13.836Z,2.72
2022-09-12T22:03:44.657Z,3.05
2022-09-12T22:06:14.139Z,3.20
2022-09-12T22:08:44.306Z,2.78
2022-09-12T22:11:12.836Z,3.35
2022-09-12T22:13:43.784Z,3.20
2022-09-12T22:16:13.114Z,2.92
2022-09-12T22:18:41.742Z,3.15
2022-09-12T22:21:12.920Z,3.20
2022-09-12T22:24:00.425Z,2.85
2022-09-12T22:26:29.943Z,2.70
2022-09-12T22:28:58.498Z,3.28
2022-09-12T22:31:28.069Z,2.83
2022-09-12T22:33:58.286Z,3.00
2022-09-12T22:36:31.022Z,2.92
2022-09-12T22:39:01.654Z,2.60
2022-09-12T22:41:30.261Z,3.30
2022-09-12T22:43:59.188Z,3.30
2022-09-12T22:46:27.905Z,3.05
2022-09-12T22:48:56.669Z,3.13
2022-09-12T22:51:25.239Z,3.00
2022-09-12T22:53:54.172Z,3.00
2022-09-12T22:56:24.810Z,3.13
2022-09-12T22:58:53.727Z,3.30
2022-09-12T23:01:22.863Z,3.08
2022-09-12T23:03:51.497Z,2.97
2022-09-12T23:06:20.210Z,3.15
2022-09-12T23:08:48.968Z,3.25
2022-09-12T23:11:19.605Z,3.53
2022-09-12T23:13:51.312Z,3.00
2022-09-12T23:16:21.676Z,3.40
2022-09-12T23:18:50.620Z,3.28
2022-09-12T23:21:21.314Z,3.33
2022-09-12T23:23:50.289Z,3.28
2022-09-12T23:26:21.454Z,4.13
2022-09-12T23:28:53.362Z,3.03
2022-09-12T23:31:23.038Z,3.35
2022-09-12T23:33:54.009Z,3.58
2022-09-12T23:36:23.382Z,3.33
2022-09-12T23:38:52.324Z,3.42
2022-09-12T23:41:22.122Z,3.40
2022-09-12T23:43:52.201Z,3.30
2022-09-12T23:46:21.503Z,3.30
2022-09-12T23:48:53.252Z,3.42
2022-09-12T23:51:22.680Z,3.58
2022-09-12T23:53:51.614Z,3.22
2022-09-12T23:56:22.002Z,3.17
2022-09-12T23:58:52.142Z,3.50
